• Join FlightAware (Why Join?)
  • Login
  • US Flag 
06:15PM EDT


 

Airport Tracker/Info


-or-


 

Live Flight TrackerFlight Track Log ✈ N21EK ✈ 19-Apr-2013 ✈ KSRQ - KBCT

Flight Track Log - Related Links

Times and Time Zones

All times are in EDT time to prevent confusion due to time zone crossing. See the N21EK flight status page for this flight to view local times or setup timezone preferences in your user account.

Time Position Orientation Groundspeed Altitude Reporting Facility
EDT Latitude Longitude Course Direction KTS MPH feet Rate Location/Type
08:18AM 27.4000 -82.5500 138° Southeast 123 142 600  Level Tampa TRACON
08:19AM 27.3667 -82.5167 138° Southeast 157 181 3,100 2,640 Climbing Tampa TRACON
08:20AM 27.3036 -82.4914 160° South 188 216 7,200 2,640 Climbing Miami Center
08:21AM 27.2542 -82.4703 159° South 188 216 10,000 2,640 Climbing Miami Center
08:22AM 27.2078 -82.4328 144° Southeast 195 224 12,500 2,100 Climbing Miami Center
08:23AM 27.1739 -82.3869 130° Southeast 195 224 14,300 1,680 Climbing Miami Center
08:24AM 27.1364 -82.3292 126° Southeast 206 237 15,900 1,500 Climbing Miami Center
08:25AM 27.0969 -82.2736 129° Southeast 218 251 17,400 1,380 Climbing Miami Center
08:26AM 27.0572 -82.2158 128° Southeast 226 260 18,700 780 Climbing Miami Center
08:27AM 27.0078 -82.1461 129° Southeast 253 291 19,000 120 Climbing Miami Center
08:28AM 26.9619 -82.0811 128° Southeast 271 312 19,000  Level Miami Center
08:29AM 26.9083 -82.0067 129° Southeast 299 344 19,000  Level Miami Center
08:30AM 26.8528 -81.9272 128° Southeast 311 358 19,000  Level Miami Center
08:31AM 26.7989 -81.8481 127° Southeast 311 358 19,000  Level Miami Center
08:32AM 26.7431 -81.7761 131° Southeast 311 358 19,000  Level Miami Center
08:33AM 26.6892 -81.6994 128° Southeast 311 358 19,000  Level Miami Center
08:34AM 26.6925 -81.5972 88° East 283 326 19,000 -540 Level Miami Center
08:35AM 26.7161 -81.5122 73° East 298 343 18,000 -600 Descending Miami Center
08:36AM 26.7425 -81.4042 75° East 316 364 17,800 -480 Descending Miami Center
08:37AM 26.7667 -81.3050 75° East 322 371 17,100 -840 Descending Miami Center
08:38AM 26.7906 -81.2058 75° East 322 371 16,200 -1,140 Descending Miami Center
08:39AM 26.8119 -81.1111 76° East 335 386 14,900 -1,440 Descending Miami Center
08:40AM 26.8128 -81.0111 89° East 335 386 13,400 -2,100 Descending Miami Center
08:41AM 26.8075 -80.9086 93° East 318 366 10,800 -2,220 Descending Miami Center
08:42AM 26.8011 -80.8294 95° East 275 316 9,000 -900 Descending Miami Center
08:43AM 26.7883 -80.7683 103° East 221 254 9,000 -300 Level Miami Center
08:44AM 26.7517 -80.7300 137° Southeast 195 224 8,500 -840 Descending Miami Center
08:45AM 26.6967 -80.6794 141° Southeast 224 258 7,400 -840 Descending Miami Center
08:46AM 26.6539 -80.6408 141° Southeast 238 274 7,000 -600 Descending Miami Center
08:47AM 26.6131 -80.6047 142° Southeast 234 269 6,500 -900 Descending Miami Center
08:47AM 26.5947 -80.5853 137° Southeast 236 272 6,000 -1,320 Descending Miami Center
08:48AM 26.5600 -80.5564 143° Southeast 259 298 5,200 -1,020 Descending Miami Center
08:48AM 26.5458 -80.5397 134° Southeast 248 285 5,000 -1,020 Descending Miami Center
08:49AM 26.5108 -80.5131 146° Southeast 222 255 4,200 -1,020 Descending Miami Center
08:49AM 26.4925 -80.4917 134° Southeast 232 267 4,000 -180 Descending Miami Center
08:50AM 26.4639 -80.4675 143° Southeast 189 217 4,000 -180 Level Miami Center
08:51AM 26.4292 -80.4364 141° Southeast 157 181 3,700 -540 Descending Miami Center
08:52AM 26.3906 -80.4006 140° Southeast 165 190 3,000 -420 Descending Miami Center
08:53AM 26.3578 -80.3717 142° Southeast 159 183 3,000 -480 Level Miami Center
08:54AM 26.3250 -80.3406 140° Southeast 158 182 2,100 -540 Descending Miami Center
08:55AM 26.2944 -80.3094 138° Southeast 152 175 2,000 -60 Descending Miami Center
08:56AM 26.2619 -80.2739 136° Southeast 158 182 2,000 -240 Level Miami Center
08:57AM 26.2694 -80.2231 81° East 169 194 1,500 -300 Descending Miami Center
08:58AM 26.3014 -80.1892 44° Northeast 173 199 1,500 -180 Level Miami Center
08:59AM 26.3269 -80.1644 41° Northeast 104 120 1,200 -480 Descending Miami Center
09:00AM 26.3506 -80.1397 43° Northeast 114 131 600 -600 Descending Miami Center
09:02AM 26.3667 -80.1000 42° Northeast  Level FlightAware Approximate
09:09AM 26.3785 -80.1077 42° Northeast  Level Estimated